sensor_id;sensor_type;location;lat;lon;timestamp;pressure;altitude;pressure_sealevel;temperature
75822;BMP180;64454;51.984;9.838;2023-03-31T00:02:04;99139.00;;;11.60
75822;BMP180;64454;51.984;9.838;2023-03-31T00:04:39;99147.00;;;11.70
75822;BMP180;64454;51.984;9.838;2023-03-31T00:07:12;99145.00;;;11.50
75822;BMP180;64454;51.984;9.838;2023-03-31T00:09:42;99144.00;;;11.60
75822;BMP180;64454;51.984;9.838;2023-03-31T00:12:12;99140.00;;;11.50
75822;BMP180;64454;51.984;9.838;2023-03-31T00:14:39;99138.00;;;11.50
75822;BMP180;64454;51.984;9.838;2023-03-31T00:17:07;99141.00;;;11.60
75822;BMP180;64454;51.984;9.838;2023-03-31T00:19:34;99133.00;;;11.50
75822;BMP180;64454;51.984;9.838;2023-03-31T00:22:02;99130.00;;;11.60
75822;BMP180;64454;51.984;9.838;2023-03-31T00:24:31;99129.00;;;11.50
75822;BMP180;64454;51.984;9.838;2023-03-31T00:27:01;99130.00;;;11.50
75822;BMP180;64454;51.984;9.838;2023-03-31T00:29:29;99127.00;;;11.40
75822;BMP180;64454;51.984;9.838;2023-03-31T00:31:58;99126.00;;;11.50
75822;BMP180;64454;51.984;9.838;2023-03-31T00:34:26;99124.00;;;11.70
75822;BMP180;64454;51.984;9.838;2023-03-31T00:36:53;99113.00;;;11.50
75822;BMP180;64454;51.984;9.838;2023-03-31T00:39:22;99115.00;;;11.40
75822;BMP180;64454;51.984;9.838;2023-03-31T00:41:50;99111.00;;;11.40
75822;BMP180;64454;51.984;9.838;2023-03-31T00:44:22;99110.00;;;11.70
75822;BMP180;64454;51.984;9.838;2023-03-31T00:46:53;99103.00;;;11.70
75822;BMP180;64454;51.984;9.838;2023-03-31T00:49:28;99100.00;;;11.60
75822;BMP180;64454;51.984;9.838;2023-03-31T00:52:03;99094.00;;;11.50
75822;BMP180;64454;51.984;9.838;2023-03-31T00:54:35;99094.00;;;11.50
75822;BMP180;64454;51.984;9.838;2023-03-31T00:57:04;99092.00;;;11.40
75822;BMP180;64454;51.984;9.838;2023-03-31T00:59:40;99079.00;;;11.30
75822;BMP180;64454;51.984;9.838;2023-03-31T01:02:12;99085.00;;;11.30
75822;BMP180;64454;51.984;9.838;2023-03-31T01:04:45;99073.00;;;11.40
75822;BMP180;64454;51.984;9.838;2023-03-31T01:07:21;99076.00;;;11.40
75822;BMP180;64454;51.984;9.838;2023-03-31T01:09:52;99077.00;;;11.30
75822;BMP180;64454;51.984;9.838;2023-03-31T01:12:26;99068.00;;;11.40
75822;BMP180;64454;51.984;9.838;2023-03-31T01:14:54;99067.00;;;11.20
75822;BMP180;64454;51.984;9.838;2023-03-31T01:17:22;99057.00;;;11.30
75822;BMP180;64454;51.984;9.838;2023-03-31T01:20:02;99051.00;;;11.20
75822;BMP180;64454;51.984;9.838;2023-03-31T01:23:30;99043.00;;;11.20
75822;BMP180;64454;51.984;9.838;2023-03-31T01:26:52;99038.00;;;11.20
75822;BMP180;64454;51.984;9.838;2023-03-31T01:30:05;99031.00;;;11.30
75822;BMP180;64454;51.984;9.838;2023-03-31T01:33:03;99027.00;;;11.30
75822;BMP180;64454;51.984;9.838;2023-03-31T01:36:40;99031.00;;;11.30
75822;BMP180;64454;51.984;9.838;2023-03-31T01:39:57;99021.00;;;11.20
75822;BMP180;64454;51.984;9.838;2023-03-31T01:42:29;99012.00;;;11.10
75822;BMP180;64454;51.984;9.838;2023-03-31T01:45:09;99012.00;;;11.00
75822;BMP180;64454;51.984;9.838;2023-03-31T01:47:45;99016.00;;;11.10
75822;BMP180;64454;51.984;9.838;2023-03-31T01:50:24;99006.00;;;11.10
75822;BMP180;64454;51.984;9.838;2023-03-31T01:53:01;99002.00;;;11.10
75822;BMP180;64454;51.984;9.838;2023-03-31T01:55:35;99001.00;;;11.30
75822;BMP180;64454;51.984;9.838;2023-03-31T01:58:10;99000.00;;;11.10
75822;BMP180;64454;51.984;9.838;2023-03-31T02:00:42;98989.00;;;11.10
75822;BMP180;64454;51.984;9.838;2023-03-31T02:03:16;98990.00;;;10.80
75822;BMP180;64454;51.984;9.838;2023-03-31T02:05:51;98980.00;;;10.90
75822;BMP180;64454;51.984;9.838;2023-03-31T02:08:22;98971.00;;;10.90
75822;BMP180;64454;51.984;9.838;2023-03-31T02:10:53;98963.00;;;10.90
75822;BMP180;64454;51.984;9.838;2023-03-31T02:13:24;98966.00;;;11.00
75822;BMP180;64454;51.984;9.838;2023-03-31T02:15:57;98957.00;;;11.00
75822;BMP180;64454;51.984;9.838;2023-03-31T02:18:29;98957.00;;;10.90
75822;BMP180;64454;51.984;9.838;2023-03-31T02:20:59;98956.00;;;11.10
75822;BMP180;64454;51.984;9.838;2023-03-31T02:23:29;98947.00;;;10.90
75822;BMP180;64454;51.984;9.838;2023-03-31T02:26:02;98938.00;;;10.80
75822;BMP180;64454;51.984;9.838;2023-03-31T02:28:30;98943.00;;;10.80
75822;BMP180;64454;51.984;9.838;2023-03-31T02:31:12;98926.00;;;10.60
75822;BMP180;64454;51.984;9.838;2023-03-31T02:33:41;98932.00;;;10.80
75822;BMP180;64454;51.984;9.838;2023-03-31T02:36:08;98927.00;;;10.90
75822;BMP180;64454;51.984;9.838;2023-03-31T02:38:42;98925.00;;;11.00
75822;BMP180;64454;51.984;9.838;2023-03-31T02:41:13;98926.00;;;10.90
75822;BMP180;64454;51.984;9.838;2023-03-31T02:43:40;98922.00;;;10.70
75822;BMP180;64454;51.984;9.838;2023-03-31T02:46:07;98928.00;;;10.90
75822;BMP180;64454;51.984;9.838;2023-03-31T02:48:38;98929.00;;;11.00
75822;BMP180;64454;51.984;9.838;2023-03-31T02:55:14;98913.00;;;10.80
75822;BMP180;64454;51.984;9.838;2023-03-31T02:58:18;98903.00;;;11.00
75822;BMP180;64454;51.984;9.838;2023-03-31T03:01:05;98911.00;;;10.90
75822;BMP180;64454;51.984;9.838;2023-03-31T03:03:43;98906.00;;;10.80
75822;BMP180;64454;51.984;9.838;2023-03-31T03:06:28;98906.00;;;10.80
75822;BMP180;64454;51.984;9.838;2023-03-31T03:09:22;98888.00;;;10.80
75822;BMP180;64454;51.984;9.838;2023-03-31T03:12:05;98892.00;;;10.80
75822;BMP180;64454;51.984;9.838;2023-03-31T03:14:41;98886.00;;;10.90
75822;BMP180;64454;51.984;9.838;2023-03-31T03:17:17;98879.00;;;10.80
75822;BMP180;64454;51.984;9.838;2023-03-31T03:19:52;98884.00;;;10.90
75822;BMP180;64454;51.984;9.838;2023-03-31T03:22:21;98872.00;;;10.80
75822;BMP180;64454;51.984;9.838;2023-03-31T03:24:48;98877.00;;;10.60
75822;BMP180;64454;51.984;9.838;2023-03-31T03:27:15;98871.00;;;10.80
75822;BMP180;64454;51.984;9.838;2023-03-31T03:29:43;98868.00;;;10.70
75822;BMP180;64454;51.984;9.838;2023-03-31T03:32:10;98863.00;;;10.80
75822;BMP180;64454;51.984;9.838;2023-03-31T03:34:37;98851.00;;;10.80
75822;BMP180;64454;51.984;9.838;2023-03-31T03:37:04;98843.00;;;10.80
75822;BMP180;64454;51.984;9.838;2023-03-31T03:39:31;98849.00;;;11.00
75822;BMP180;64454;51.984;9.838;2023-03-31T03:41:58;98845.00;;;10.70
75822;BMP180;64454;51.984;9.838;2023-03-31T03:44:25;98829.00;;;10.80
75822;BMP180;64454;51.984;9.838;2023-03-31T03:46:53;98824.00;;;10.70
75822;BMP180;64454;51.984;9.838;2023-03-31T03:49:20;98822.00;;;10.70
75822;BMP180;64454;51.984;9.838;2023-03-31T03:51:47;98823.00;;;10.60
75822;BMP180;64454;51.984;9.838;2023-03-31T03:54:16;98821.00;;;10.70
75822;BMP180;64454;51.984;9.838;2023-03-31T03:56:43;98819.00;;;10.70
75822;BMP180;64454;51.984;9.838;2023-03-31T03:59:11;98807.00;;;10.50
75822;BMP180;64454;51.984;9.838;2023-03-31T04:01:38;98797.00;;;10.60
75822;BMP180;64454;51.984;9.838;2023-03-31T04:04:07;98796.00;;;10.80
75822;BMP180;64454;51.984;9.838;2023-03-31T04:06:33;98780.00;;;10.60
75822;BMP180;64454;51.984;9.838;2023-03-31T04:09:00;98792.00;;;10.50
75822;BMP180;64454;51.984;9.838;2023-03-31T04:11:28;98770.00;;;10.50
75822;BMP180;64454;51.984;9.838;2023-03-31T04:13:55;98767.00;;;10.60
75822;BMP180;64454;51.984;9.838;2023-03-31T04:16:22;98757.00;;;10.60
75822;BMP180;64454;51.984;9.838;2023-03-31T04:18:50;98747.00;;;10.90
75822;BMP180;64454;51.984;9.838;2023-03-31T04:21:18;98742.00;;;10.80
75822;BMP180;64454;51.984;9.838;2023-03-31T04:23:49;98731.00;;;10.70
75822;BMP180;64454;51.984;9.838;2023-03-31T04:26:25;98725.00;;;10.60
75822;BMP180;64454;51.984;9.838;2023-03-31T04:28:56;98724.00;;;10.50
75822;BMP180;64454;51.984;9.838;2023-03-31T04:31:26;98723.00;;;10.70
75822;BMP180;64454;51.984;9.838;2023-03-31T04:33:55;98710.00;;;10.70
75822;BMP180;64454;51.984;9.838;2023-03-31T04:36:27;98705.00;;;10.60
75822;BMP180;64454;51.984;9.838;2023-03-31T04:38:56;98698.00;;;10.60
75822;BMP180;64454;51.984;9.838;2023-03-31T04:41:24;98692.00;;;10.40
75822;BMP180;64454;51.984;9.838;2023-03-31T04:43:52;98687.00;;;10.40
75822;BMP180;64454;51.984;9.838;2023-03-31T04:46:20;98688.00;;;10.50
75822;BMP180;64454;51.984;9.838;2023-03-31T04:48:47;98679.00;;;10.40
75822;BMP180;64454;51.984;9.838;2023-03-31T04:51:14;98673.00;;;10.40
75822;BMP180;64454;51.984;9.838;2023-03-31T04:53:42;98673.00;;;10.40
75822;BMP180;64454;51.984;9.838;2023-03-31T04:56:09;98666.00;;;10.40
75822;BMP180;64454;51.984;9.838;2023-03-31T04:58:35;98657.00;;;10.30
75822;BMP180;64454;51.984;9.838;2023-03-31T05:01:03;98664.00;;;10.30
75822;BMP180;64454;51.984;9.838;2023-03-31T05:03:32;98663.00;;;10.40
75822;BMP180;64454;51.984;9.838;2023-03-31T05:05:59;98652.00;;;10.30
75822;BMP180;64454;51.984;9.838;2023-03-31T05:08:26;98658.00;;;10.40
75822;BMP180;64454;51.984;9.838;2023-03-31T05:10:54;98658.00;;;10.60
75822;BMP180;64454;51.984;9.838;2023-03-31T05:13:21;98660.00;;;10.60
75822;BMP180;64454;51.984;9.838;2023-03-31T05:15:48;98659.00;;;10.70
75822;BMP180;64454;51.984;9.838;2023-03-31T05:18:16;98672.00;;;10.70
75822;BMP180;64454;51.984;9.838;2023-03-31T05:20:43;98657.00;;;10.70
75822;BMP180;64454;51.984;9.838;2023-03-31T05:23:10;98656.00;;;10.50
75822;BMP180;64454;51.984;9.838;2023-03-31T05:25:37;98662.00;;;10.60
75822;BMP180;64454;51.984;9.838;2023-03-31T05:28:05;98656.00;;;10.60
75822;BMP180;64454;51.984;9.838;2023-03-31T05:30:32;98653.00;;;10.50
75822;BMP180;64454;51.984;9.838;2023-03-31T05:32:58;98652.00;;;10.60
75822;BMP180;64454;51.984;9.838;2023-03-31T05:35:25;98645.00;;;10.70
75822;BMP180;64454;51.984;9.838;2023-03-31T05:37:52;98639.00;;;10.50
75822;BMP180;64454;51.984;9.838;2023-03-31T05:40:19;98625.00;;;10.60
75822;BMP180;64454;51.984;9.838;2023-03-31T05:42:46;98634.00;;;10.80
75822;BMP180;64454;51.984;9.838;2023-03-31T05:45:14;98623.00;;;10.60
75822;BMP180;64454;51.984;9.838;2023-03-31T05:47:41;98611.00;;;10.70
75822;BMP180;64454;51.984;9.838;2023-03-31T05:50:09;98612.00;;;10.60
75822;BMP180;64454;51.984;9.838;2023-03-31T05:52:35;98619.00;;;10.70
75822;BMP180;64454;51.984;9.838;2023-03-31T05:55:02;98609.00;;;10.60
75822;BMP180;64454;51.984;9.838;2023-03-31T05:57:29;98600.00;;;10.70
75822;BMP180;64454;51.984;9.838;2023-03-31T05:59:56;98609.00;;;10.80
75822;BMP180;64454;51.984;9.838;2023-03-31T06:02:24;98599.00;;;10.90
75822;BMP180;64454;51.984;9.838;2023-03-31T06:04:51;98596.00;;;10.70
75822;BMP180;64454;51.984;9.838;2023-03-31T06:07:18;98595.00;;;10.70
75822;BMP180;64454;51.984;9.838;2023-03-31T06:09:46;98586.00;;;10.70
75822;BMP180;64454;51.984;9.838;2023-03-31T06:12:13;98597.00;;;10.50
75822;BMP180;64454;51.984;9.838;2023-03-31T06:14:41;98593.00;;;10.60
75822;BMP180;64454;51.984;9.838;2023-03-31T06:17:08;98586.00;;;10.60
75822;BMP180;64454;51.984;9.838;2023-03-31T06:19:36;98583.00;;;10.60
75822;BMP180;64454;51.984;9.838;2023-03-31T06:22:02;98589.00;;;10.40
75822;BMP180;64454;51.984;9.838;2023-03-31T06:24:29;98588.00;;;10.40
75822;BMP180;64454;51.984;9.838;2023-03-31T06:26:56;98584.00;;;10.60
75822;BMP180;64454;51.984;9.838;2023-03-31T06:29:25;98599.00;;;10.50
75822;BMP180;64454;51.984;9.838;2023-03-31T06:31:52;98586.00;;;10.70
75822;BMP180;64454;51.984;9.838;2023-03-31T06:34:20;98589.00;;;10.70
75822;BMP180;64454;51.984;9.838;2023-03-31T06:36:49;98587.00;;;10.60
75822;BMP180;64454;51.984;9.838;2023-03-31T06:39:18;98584.00;;;10.50
75822;BMP180;64454;51.984;9.838;2023-03-31T06:41:45;98583.00;;;10.60
75822;BMP180;64454;51.984;9.838;2023-03-31T06:44:12;98584.00;;;10.40
75822;BMP180;64454;51.984;9.838;2023-03-31T06:46:41;98574.00;;;10.50
75822;BMP180;64454;51.984;9.838;2023-03-31T06:49:08;98575.00;;;10.60
75822;BMP180;64454;51.984;9.838;2023-03-31T06:51:34;98566.00;;;10.60
75822;BMP180;64454;51.984;9.838;2023-03-31T06:54:03;98564.00;;;10.60
75822;BMP180;64454;51.984;9.838;2023-03-31T06:56:29;98556.00;;;10.60
75822;BMP180;64454;51.984;9.838;2023-03-31T06:58:56;98563.00;;;10.70
75822;BMP180;64454;51.984;9.838;2023-03-31T07:01:23;98538.00;;;10.60
75822;BMP180;64454;51.984;9.838;2023-03-31T07:03:50;98551.00;;;10.50
75822;BMP180;64454;51.984;9.838;2023-03-31T07:06:16;98529.00;;;10.60
75822;BMP180;64454;51.984;9.838;2023-03-31T07:08:43;98541.00;;;10.60
75822;BMP180;64454;51.984;9.838;2023-03-31T07:11:11;98535.00;;;10.60
75822;BMP180;64454;51.984;9.838;2023-03-31T07:13:38;98539.00;;;10.60
75822;BMP180;64454;51.984;9.838;2023-03-31T07:16:06;98530.00;;;10.60
75822;BMP180;64454;51.984;9.838;2023-03-31T07:18:34;98529.00;;;10.80
75822;BMP180;64454;51.984;9.838;2023-03-31T07:21:02;98518.00;;;10.70
75822;BMP180;64454;51.984;9.838;2023-03-31T07:23:30;98526.00;;;10.70
75822;BMP180;64454;51.984;9.838;2023-03-31T07:25:56;98530.00;;;10.70
75822;BMP180;64454;51.984;9.838;2023-03-31T07:28:28;98522.00;;;10.70
75822;BMP180;64454;51.984;9.838;2023-03-31T07:30:56;98522.00;;;10.70
75822;BMP180;64454;51.984;9.838;2023-03-31T07:33:23;98506.00;;;10.80
75822;BMP180;64454;51.984;9.838;2023-03-31T07:35:50;98510.00;;;10.70
75822;BMP180;64454;51.984;9.838;2023-03-31T07:38:17;98502.00;;;10.80
75822;BMP180;64454;51.984;9.838;2023-03-31T07:40:44;98494.00;;;10.90
75822;BMP180;64454;51.984;9.838;2023-03-31T07:43:11;98485.00;;;10.80
75822;BMP180;64454;51.984;9.838;2023-03-31T07:45:39;98471.00;;;10.90
75822;BMP180;64454;51.984;9.838;2023-03-31T07:48:06;98474.00;;;11.00
75822;BMP180;64454;51.984;9.838;2023-03-31T07:50:33;98480.00;;;11.00
75822;BMP180;64454;51.984;9.838;2023-03-31T07:53:01;98473.00;;;10.90
75822;BMP180;64454;51.984;9.838;2023-03-31T07:55:28;98461.00;;;10.80
75822;BMP180;64454;51.984;9.838;2023-03-31T07:57:55;98458.00;;;10.80
75822;BMP180;64454;51.984;9.838;2023-03-31T08:00:23;98465.00;;;11.00
75822;BMP180;64454;51.984;9.838;2023-03-31T08:02:51;98457.00;;;11.00
75822;BMP180;64454;51.984;9.838;2023-03-31T08:05:19;98456.00;;;11.00
75822;BMP180;64454;51.984;9.838;2023-03-31T08:07:49;98440.00;;;11.10
75822;BMP180;64454;51.984;9.838;2023-03-31T08:10:19;98432.00;;;11.20
75822;BMP180;64454;51.984;9.838;2023-03-31T08:12:46;98429.00;;;11.00
75822;BMP180;64454;51.984;9.838;2023-03-31T08:15:13;98413.00;;;11.20
75822;BMP180;64454;51.984;9.838;2023-03-31T08:17:41;98414.00;;;11.20
75822;BMP180;64454;51.984;9.838;2023-03-31T08:20:10;98414.00;;;11.20
75822;BMP180;64454;51.984;9.838;2023-03-31T08:22:38;98407.00;;;11.30
75822;BMP180;64454;51.984;9.838;2023-03-31T08:25:07;98407.00;;;11.20
75822;BMP180;64454;51.984;9.838;2023-03-31T08:27:36;98405.00;;;11.10
75822;BMP180;64454;51.984;9.838;2023-03-31T08:30:05;98406.00;;;11.00
75822;BMP180;64454;51.984;9.838;2023-03-31T08:32:33;98406.00;;;11.00
75822;BMP180;64454;51.984;9.838;2023-03-31T08:35:00;98405.00;;;10.90
75822;BMP180;64454;51.984;9.838;2023-03-31T08:37:28;98408.00;;;10.90
75822;BMP180;64454;51.984;9.838;2023-03-31T08:39:56;98399.00;;;11.00
75822;BMP180;64454;51.984;9.838;2023-03-31T08:42:34;98398.00;;;11.20
75822;BMP180;64454;51.984;9.838;2023-03-31T08:45:09;98392.00;;;11.40
75822;BMP180;64454;51.984;9.838;2023-03-31T08:47:38;98388.00;;;11.10
75822;BMP180;64454;51.984;9.838;2023-03-31T08:50:12;98394.00;;;11.30
75822;BMP180;64454;51.984;9.838;2023-03-31T08:52:48;98388.00;;;11.10
75822;BMP180;64454;51.984;9.838;2023-03-31T08:55:24;98381.00;;;11.20
75822;BMP180;64454;51.984;9.838;2023-03-31T08:57:59;98380.00;;;11.30
75822;BMP180;64454;51.984;9.838;2023-03-31T09:00:36;98376.00;;;11.20
75822;BMP180;64454;51.984;9.838;2023-03-31T09:03:17;98387.00;;;10.90
75822;BMP180;64454;51.984;9.838;2023-03-31T09:05:56;98386.00;;;10.70
75822;BMP180;64454;51.984;9.838;2023-03-31T09:08:34;98384.00;;;10.90
75822;BMP180;64454;51.984;9.838;2023-03-31T09:11:17;98379.00;;;10.80
75822;BMP180;64454;51.984;9.838;2023-03-31T09:14:17;98380.00;;;10.60
75822;BMP180;64454;51.984;9.838;2023-03-31T09:17:00;98379.00;;;10.70
75822;BMP180;64454;51.984;9.838;2023-03-31T09:19:37;98378.00;;;10.30
75822;BMP180;64454;51.984;9.838;2023-03-31T09:22:13;98377.00;;;10.50
75822;BMP180;64454;51.984;9.838;2023-03-31T09:24:51;98368.00;;;10.50
75822;BMP180;64454;51.984;9.838;2023-03-31T09:27:19;98373.00;;;10.60
75822;BMP180;64454;51.984;9.838;2023-03-31T09:29:51;98381.00;;;10.50
75822;BMP180;64454;51.984;9.838;2023-03-31T09:32:22;98381.00;;;10.40
75822;BMP180;64454;51.984;9.838;2023-03-31T09:34:52;98376.00;;;10.60
75822;BMP180;64454;51.984;9.838;2023-03-31T09:37:26;98374.00;;;10.50
75822;BMP180;64454;51.984;9.838;2023-03-31T09:39:55;98373.00;;;10.20
75822;BMP180;64454;51.984;9.838;2023-03-31T09:42:23;98364.00;;;10.60
75822;BMP180;64454;51.984;9.838;2023-03-31T09:44:50;98365.00;;;10.40
75822;BMP180;64454;51.984;9.838;2023-03-31T09:47:26;98370.00;;;10.40
75822;BMP180;64454;51.984;9.838;2023-03-31T09:49:54;98360.00;;;10.50
75822;BMP180;64454;51.984;9.838;2023-03-31T09:52:29;98362.00;;;10.60
75822;BMP180;64454;51.984;9.838;2023-03-31T09:55:00;98363.00;;;10.50
75822;BMP180;64454;51.984;9.838;2023-03-31T09:57:30;98365.00;;;10.40
75822;BMP180;64454;51.984;9.838;2023-03-31T10:00:04;98358.00;;;10.30
75822;BMP180;64454;51.984;9.838;2023-03-31T10:02:43;98352.00;;;10.60
75822;BMP180;64454;51.984;9.838;2023-03-31T10:05:26;98353.00;;;10.50
75822;BMP180;64454;51.984;9.838;2023-03-31T10:08:18;98349.00;;;10.40
75822;BMP180;64454;51.984;9.838;2023-03-31T10:10:50;98352.00;;;10.50
75822;BMP180;64454;51.984;9.838;2023-03-31T10:13:22;98346.00;;;10.30
75822;BMP180;64454;51.984;9.838;2023-03-31T10:15:52;98350.00;;;10.40
75822;BMP180;64454;51.984;9.838;2023-03-31T10:18:31;98346.00;;;10.30
75822;BMP180;64454;51.984;9.838;2023-03-31T10:21:01;98353.00;;;10.60
75822;BMP180;64454;51.984;9.838;2023-03-31T10:23:31;98358.00;;;10.60
75822;BMP180;64454;51.984;9.838;2023-03-31T10:26:02;98352.00;;;10.50
75822;BMP180;64454;51.984;9.838;2023-03-31T10:28:33;98353.00;;;10.60
75822;BMP180;64454;51.984;9.838;2023-03-31T10:31:01;98343.00;;;10.40
75822;BMP180;64454;51.984;9.838;2023-03-31T10:33:31;98335.00;;;10.50
75822;BMP180;64454;51.984;9.838;2023-03-31T10:36:01;98326.00;;;10.70
75822;BMP180;64454;51.984;9.838;2023-03-31T10:38:37;98330.00;;;10.30
75822;BMP180;64454;51.984;9.838;2023-03-31T10:41:07;98332.00;;;10.30
75822;BMP180;64454;51.984;9.838;2023-03-31T10:43:39;98327.00;;;10.40
75822;BMP180;64454;51.984;9.838;2023-03-31T10:46:07;98322.00;;;10.50
75822;BMP180;64454;51.984;9.838;2023-03-31T10:48:36;98323.00;;;10.20
75822;BMP180;64454;51.984;9.838;2023-03-31T10:51:11;98327.00;;;10.50
75822;BMP180;64454;51.984;9.838;2023-03-31T10:53:42;98319.00;;;10.60
75822;BMP180;64454;51.984;9.838;2023-03-31T10:56:24;98314.00;;;10.60
75822;BMP180;64454;51.984;9.838;2023-03-31T10:59:23;98309.00;;;10.30
75822;BMP180;64454;51.984;9.838;2023-03-31T11:02:13;98303.00;;;10.30
75822;BMP180;64454;51.984;9.838;2023-03-31T11:05:00;98300.00;;;10.40
75822;BMP180;64454;51.984;9.838;2023-03-31T11:07:43;98294.00;;;10.80
75822;BMP180;64454;51.984;9.838;2023-03-31T11:10:43;98275.00;;;10.70
75822;BMP180;64454;51.984;9.838;2023-03-31T11:13:25;98269.00;;;11.00
75822;BMP180;64454;51.984;9.838;2023-03-31T11:16:06;98278.00;;;10.80
75822;BMP180;64454;51.984;9.838;2023-03-31T11:18:56;98266.00;;;11.20
75822;BMP180;64454;51.984;9.838;2023-03-31T11:21:38;98264.00;;;11.30
75822;BMP180;64454;51.984;9.838;2023-03-31T11:24:25;98262.00;;;11.10
75822;BMP180;64454;51.984;9.838;2023-03-31T11:27:11;98264.00;;;11.10
75822;BMP180;64454;51.984;9.838;2023-03-31T11:29:50;98266.00;;;10.80
75822;BMP180;64454;51.984;9.838;2023-03-31T11:32:40;98275.00;;;10.70
75822;BMP180;64454;51.984;9.838;2023-03-31T11:35:31;98279.00;;;10.50
75822;BMP180;64454;51.984;9.838;2023-03-31T11:38:20;98273.00;;;10.50
75822;BMP180;64454;51.984;9.838;2023-03-31T11:40:59;98273.00;;;10.50
75822;BMP180;64454;51.984;9.838;2023-03-31T11:43:32;98282.00;;;10.80
75822;BMP180;64454;51.984;9.838;2023-03-31T11:46:09;98288.00;;;10.40
75822;BMP180;64454;51.984;9.838;2023-03-31T11:48:46;98286.00;;;10.50
75822;BMP180;64454;51.984;9.838;2023-03-31T11:51:19;98294.00;;;10.50
75822;BMP180;64454;51.984;9.838;2023-03-31T11:53:50;98289.00;;;10.40
75822;BMP180;64454;51.984;9.838;2023-03-31T11:56:20;98284.00;;;10.60
75822;BMP180;64454;51.984;9.838;2023-03-31T11:58:52;98269.00;;;10.70
75822;BMP180;64454;51.984;9.838;2023-03-31T12:01:29;98284.00;;;10.80
75822;BMP180;64454;51.984;9.838;2023-03-31T12:04:04;98272.00;;;10.60
75822;BMP180;64454;51.984;9.838;2023-03-31T12:06:40;98263.00;;;10.40
75822;BMP180;64454;51.984;9.838;2023-03-31T12:09:20;98264.00;;;10.70
75822;BMP180;64454;51.984;9.838;2023-03-31T12:11:55;98245.00;;;11.00
75822;BMP180;64454;51.984;9.838;2023-03-31T12:14:28;98254.00;;;11.10
75822;BMP180;64454;51.984;9.838;2023-03-31T12:17:04;98251.00;;;10.70
75822;BMP180;64454;51.984;9.838;2023-03-31T12:19:45;98248.00;;;10.80
75822;BMP180;64454;51.984;9.838;2023-03-31T12:22:20;98250.00;;;10.90
75822;BMP180;64454;51.984;9.838;2023-03-31T12:24:48;98247.00;;;10.80
75822;BMP180;64454;51.984;9.838;2023-03-31T12:27:19;98255.00;;;10.70
75822;BMP180;64454;51.984;9.838;2023-03-31T12:29:54;98255.00;;;10.90
75822;BMP180;64454;51.984;9.838;2023-03-31T12:32:27;98249.00;;;10.90
75822;BMP180;64454;51.984;9.838;2023-03-31T12:34:59;98251.00;;;11.00
75822;BMP180;64454;51.984;9.838;2023-03-31T12:38:10;98247.00;;;10.40
75822;BMP180;64454;51.984;9.838;2023-03-31T12:40:54;98220.00;;;10.30
75822;BMP180;64454;51.984;9.838;2023-03-31T12:47:04;98193.00;;;10.10
75822;BMP180;64454;51.984;9.838;2023-03-31T12:50:05;98189.00;;;10.10
75822;BMP180;64454;51.984;9.838;2023-03-31T12:52:44;98171.00;;;10.30
75822;BMP180;64454;51.984;9.838;2023-03-31T12:55:32;98163.00;;;10.70
75822;BMP180;64454;51.984;9.838;2023-03-31T12:58:38;98167.00;;;10.60
75822;BMP180;64454;51.984;9.838;2023-03-31T13:01:08;98172.00;;;10.40
75822;BMP180;64454;51.984;9.838;2023-03-31T13:03:48;98167.00;;;10.80
75822;BMP180;64454;51.984;9.838;2023-03-31T13:06:53;98157.00;;;11.20
75822;BMP180;64454;51.984;9.838;2023-03-31T13:09:48;98153.00;;;11.40
75822;BMP180;64454;51.984;9.838;2023-03-31T13:12:23;98148.00;;;11.60
75822;BMP180;64454;51.984;9.838;2023-03-31T13:14:54;98149.00;;;11.50
75822;BMP180;64454;51.984;9.838;2023-03-31T13:17:29;98156.00;;;11.60
75822;BMP180;64454;51.984;9.838;2023-03-31T13:20:22;98150.00;;;11.50
75822;BMP180;64454;51.984;9.838;2023-03-31T13:23:00;98149.00;;;11.50
75822;BMP180;64454;51.984;9.838;2023-03-31T13:25:42;98153.00;;;11.60
75822;BMP180;64454;51.984;9.838;2023-03-31T13:28:32;98156.00;;;11.10
75822;BMP180;64454;51.984;9.838;2023-03-31T13:31:01;98155.00;;;11.50
75822;BMP180;64454;51.984;9.838;2023-03-31T13:33:36;98158.00;;;11.30
75822;BMP180;64454;51.984;9.838;2023-03-31T13:39:48;98168.00;;;11.00
75822;BMP180;64454;51.984;9.838;2023-03-31T13:42:48;98186.00;;;10.80
75822;BMP180;64454;51.984;9.838;2023-03-31T13:45:35;98185.00;;;10.60
75822;BMP180;64454;51.984;9.838;2023-03-31T13:48:19;98176.00;;;10.90
75822;BMP180;64454;51.984;9.838;2023-03-31T13:51:21;98177.00;;;10.90
75822;BMP180;64454;51.984;9.838;2023-03-31T13:54:29;98171.00;;;10.90
75822;BMP180;64454;51.984;9.838;2023-03-31T14:00:30;98152.00;;;11.40
75822;BMP180;64454;51.984;9.838;2023-03-31T14:03:28;98143.00;;;12.00
75822;BMP180;64454;51.984;9.838;2023-03-31T14:06:04;98133.00;;;12.90
75822;BMP180;64454;51.984;9.838;2023-03-31T14:08:47;98128.00;;;13.20
75822;BMP180;64454;51.984;9.838;2023-03-31T14:11:24;98120.00;;;13.20
75822;BMP180;64454;51.984;9.838;2023-03-31T14:14:04;98131.00;;;12.90
75822;BMP180;64454;51.984;9.838;2023-03-31T14:16:36;98116.00;;;14.10
75822;BMP180;64454;51.984;9.838;2023-03-31T14:22:15;98118.00;;;15.80
75822;BMP180;64454;51.984;9.838;2023-03-31T14:24:53;98137.00;;;15.10
75822;BMP180;64454;51.984;9.838;2023-03-31T14:27:42;98129.00;;;15.10
75822;BMP180;64454;51.984;9.838;2023-03-31T14:30:26;98136.00;;;15.10
75822;BMP180;64454;51.984;9.838;2023-03-31T14:33:10;98135.00;;;16.50
75822;BMP180;64454;51.984;9.838;2023-03-31T14:35:45;98138.00;;;17.10
75822;BMP180;64454;51.984;9.838;2023-03-31T14:38:19;98137.00;;;17.60
75822;BMP180;64454;51.984;9.838;2023-03-31T14:40:50;98128.00;;;18.90
75822;BMP180;64454;51.984;9.838;2023-03-31T14:43:22;98123.00;;;18.40
75822;BMP180;64454;51.984;9.838;2023-03-31T14:45:59;98125.00;;;20.50
75822;BMP180;64454;51.984;9.838;2023-03-31T14:48:28;98133.00;;;20.70
75822;BMP180;64454;51.984;9.838;2023-03-31T14:50:57;98127.00;;;19.80
75822;BMP180;64454;51.984;9.838;2023-03-31T14:53:26;98130.00;;;16.60
75822;BMP180;64454;51.984;9.838;2023-03-31T14:56:03;98143.00;;;16.90
75822;BMP180;64454;51.984;9.838;2023-03-31T14:58:34;98140.00;;;17.20
75822;BMP180;64454;51.984;9.838;2023-03-31T15:01:04;98140.00;;;17.60
75822;BMP180;64454;51.984;9.838;2023-03-31T15:03:34;98148.00;;;16.70
75822;BMP180;64454;51.984;9.838;2023-03-31T15:06:03;98141.00;;;16.30